createdAt,value
2017-09-24T00:02:03.897Z,10.90
2017-09-24T00:04:31.562Z,10.90
2017-09-24T00:06:59.115Z,10.90
2017-09-24T00:09:26.646Z,10.80
2017-09-24T00:11:54.234Z,10.90
2017-09-24T00:14:21.944Z,10.80
2017-09-24T00:16:49.574Z,10.80
2017-09-24T00:19:17.212Z,10.80
2017-09-24T00:21:44.736Z,10.80
2017-09-24T00:24:13.028Z,10.80
2017-09-24T00:26:40.579Z,10.80
2017-09-24T00:29:08.876Z,10.80
2017-09-24T00:31:36.409Z,10.80
2017-09-24T00:34:04.937Z,10.80
2017-09-24T00:36:34.948Z,10.80
2017-09-24T00:39:02.589Z,10.80
2017-09-24T00:41:30.141Z,10.80
2017-09-24T00:43:58.450Z,10.80
2017-09-24T00:46:26.013Z,10.80
2017-09-24T00:48:53.618Z,10.80
2017-09-24T00:51:21.956Z,10.80
2017-09-24T00:53:49.517Z,10.80
2017-09-24T00:56:17.065Z,10.80
2017-09-24T00:58:44.623Z,10.80
2017-09-24T01:01:12.153Z,10.80
2017-09-24T01:03:40.456Z,10.80
2017-09-24T01:06:08.100Z,10.80
2017-09-24T01:08:35.632Z,10.80
2017-09-24T01:11:03.956Z,10.80
2017-09-24T01:13:31.476Z,10.80
2017-09-24T01:15:59.779Z,10.80
2017-09-24T01:18:27.326Z,10.80
2017-09-24T01:20:55.629Z,10.90
2017-09-24T01:23:23.186Z,10.90
2017-09-24T01:25:50.753Z,10.90
2017-09-24T01:28:19.238Z,10.90
2017-09-24T01:30:46.767Z,10.80
2017-09-24T01:33:14.312Z,10.80
2017-09-24T01:35:42.601Z,10.80
2017-09-24T01:38:10.894Z,10.80
2017-09-24T01:40:38.438Z,10.80
2017-09-24T01:43:07.029Z,10.80
2017-09-24T01:45:34.560Z,10.80
2017-09-24T01:48:02.989Z,10.80
2017-09-24T01:50:30.545Z,10.80
2017-09-24T01:52:58.069Z,10.80
2017-09-24T01:55:26.376Z,10.70
2017-09-24T01:57:53.909Z,10.70
2017-09-24T02:00:22.221Z,10.70
2017-09-24T02:02:49.762Z,10.70
2017-09-24T02:05:17.288Z,10.70
2017-09-24T02:07:45.143Z,10.70
2017-09-24T02:10:12.768Z,10.70
2017-09-24T02:12:40.292Z,10.70
2017-09-24T02:15:08.583Z,10.60
2017-09-24T02:17:36.125Z,10.50
2017-09-24T02:20:04.425Z,10.50
2017-09-24T02:22:32.004Z,10.50
2017-09-24T02:24:59.561Z,10.50
2017-09-24T02:27:27.088Z,10.50
2017-09-24T02:29:55.717Z,10.50
2017-09-24T02:32:23.365Z,10.40
2017-09-24T02:34:50.893Z,10.50
2017-09-24T02:37:19.184Z,10.50
2017-09-24T02:39:46.775Z,10.40
2017-09-24T02:42:14.327Z,10.50
2017-09-24T02:44:41.858Z,10.50
2017-09-24T02:47:09.406Z,10.50
2017-09-24T02:49:38.624Z,10.50
2017-09-24T02:52:06.157Z,10.50
2017-09-24T02:54:34.477Z,10.50
2017-09-24T02:57:02.010Z,10.40
2017-09-24T02:59:29.542Z,10.50
2017-09-24T03:01:57.878Z,10.40
2017-09-24T03:04:25.415Z,10.40
2017-09-24T03:06:53.002Z,10.40
2017-09-24T03:09:20.545Z,10.40
2017-09-24T03:11:48.077Z,10.30
2017-09-24T03:14:16.398Z,10.30
2017-09-24T03:16:43.950Z,10.20
2017-09-24T03:19:11.509Z,10.20
2017-09-24T03:21:40.074Z,10.10
2017-09-24T03:24:07.655Z,10.10
2017-09-24T03:26:35.181Z,10.00
2017-09-24T03:29:03.492Z,9.90
2017-09-24T03:31:31.028Z,9.90
2017-09-24T03:33:58.580Z,9.90
2017-09-24T03:36:26.124Z,9.90
2017-09-24T03:38:54.429Z,9.90
2017-09-24T03:41:22.005Z,9.90
2017-09-24T03:43:49.529Z,9.90
2017-09-24T03:46:17.841Z,9.90
2017-09-24T03:48:45.364Z,10.00
2017-09-24T03:51:13.682Z,10.00
2017-09-24T03:53:41.231Z,10.00
2017-09-24T03:56:08.898Z,10.00
2017-09-24T03:58:37.338Z,10.10
2017-09-24T04:01:05.662Z,10.10
2017-09-24T04:03:33.194Z,10.10
2017-09-24T04:06:00.781Z,10.20
2017-09-24T04:08:28.446Z,10.20
2017-09-24T04:10:55.975Z,10.20
2017-09-24T04:13:24.262Z,10.20
2017-09-24T04:15:51.805Z,10.20
2017-09-24T04:18:20.097Z,10.20
2017-09-24T04:20:47.626Z,10.20
2017-09-24T04:23:15.249Z,10.20
2017-09-24T04:25:42.765Z,10.20
2017-09-24T04:28:12.073Z,10.20
2017-09-24T04:30:39.618Z,10.10
2017-09-24T04:33:07.900Z,10.10
2017-09-24T04:35:36.209Z,10.10
2017-09-24T04:38:03.745Z,10.10
2017-09-24T04:40:31.273Z,10.10
2017-09-24T04:42:59.570Z,10.00
2017-09-24T04:45:27.880Z,10.00
2017-09-24T04:47:55.438Z,10.00
2017-09-24T04:50:22.960Z,10.00
2017-09-24T04:52:51.267Z,10.00
2017-09-24T04:55:18.836Z,10.00
2017-09-24T04:57:46.404Z,10.00
2017-09-24T05:00:13.958Z,10.10
2017-09-24T05:02:42.439Z,10.00
2017-09-24T05:05:09.976Z,10.00
2017-09-24T05:07:37.519Z,10.00
2017-09-24T05:10:05.836Z,10.10
2017-09-24T05:12:33.373Z,10.10
2017-09-24T05:15:00.930Z,10.10
2017-09-24T05:17:28.514Z,10.10
2017-09-24T05:19:56.053Z,10.20
2017-09-24T05:22:23.634Z,10.20
2017-09-24T05:24:51.206Z,10.20
2017-09-24T05:27:19.349Z,10.20
2017-09-24T05:29:46.897Z,10.20
2017-09-24T05:32:15.186Z,10.30
2017-09-24T05:34:43.628Z,10.30
2017-09-24T05:37:11.181Z,10.30
2017-09-24T05:39:38.713Z,10.40
2017-09-24T05:42:06.236Z,10.40
2017-09-24T05:44:34.573Z,10.50
2017-09-24T05:47:02.101Z,10.50
2017-09-24T05:49:29.657Z,10.60
2017-09-24T05:51:57.203Z,10.60
2017-09-24T05:54:24.812Z,10.70
2017-09-24T05:56:52.338Z,10.80
2017-09-24T05:59:19.889Z,10.80
2017-09-24T06:01:47.422Z,10.80
2017-09-24T06:04:15.798Z,10.90
2017-09-24T06:06:45.042Z,10.90
2017-09-24T06:09:12.582Z,11.00
2017-09-24T06:11:40.110Z,11.00
2017-09-24T06:14:08.422Z,11.10
2017-09-24T06:16:35.958Z,11.10
2017-09-24T06:19:04.278Z,11.20
2017-09-24T06:21:31.834Z,11.20
2017-09-24T06:23:59.361Z,11.30
2017-09-24T06:26:27.552Z,11.30
2017-09-24T06:28:55.441Z,11.40
2017-09-24T06:31:23.028Z,11.40
2017-09-24T06:33:51.489Z,11.50
2017-09-24T06:36:19.056Z,11.60
2017-09-24T06:38:46.581Z,11.60
2017-09-24T06:41:14.149Z,11.60
2017-09-24T06:43:41.688Z,11.70
2017-09-24T06:46:10.587Z,11.70
2017-09-24T06:48:38.265Z,11.80
2017-09-24T06:51:05.819Z,11.90
2017-09-24T06:53:33.351Z,12.00
2017-09-24T06:56:01.646Z,12.20
2017-09-24T06:58:29.190Z,12.20
2017-09-24T07:00:57.492Z,12.30
2017-09-24T07:03:25.026Z,12.30
2017-09-24T07:05:53.458Z,12.50
2017-09-24T07:08:20.994Z,12.50
2017-09-24T07:10:48.522Z,12.60
2017-09-24T07:13:17.654Z,12.70
2017-09-24T07:15:45.184Z,12.70
2017-09-24T07:18:13.598Z,12.90
2017-09-24T07:20:41.150Z,12.90
2017-09-24T07:23:08.705Z,13.00
2017-09-24T07:25:36.269Z,13.00
2017-09-24T07:28:03.824Z,13.20
2017-09-24T07:30:31.355Z,13.30
2017-09-24T07:32:59.647Z,13.70
2017-09-24T07:35:27.197Z,13.70
2017-09-24T07:37:55.495Z,14.10
2017-09-24T07:40:23.013Z,14.10
2017-09-24T07:42:51.320Z,14.50
2017-09-24T07:45:18.844Z,14.40
2017-09-24T07:47:46.387Z,14.70
2017-09-24T07:50:14.150Z,14.90
2017-09-24T07:52:41.678Z,15.20
2017-09-24T07:55:09.242Z,15.60
2017-09-24T07:57:36.853Z,15.80
2017-09-24T08:00:04.367Z,16.10
2017-09-24T08:02:31.921Z,16.30
2017-09-24T08:04:59.467Z,16.40
2017-09-24T08:07:26.994Z,16.70
2017-09-24T08:09:55.286Z,17.00
2017-09-24T08:12:23.630Z,17.10
2017-09-24T08:14:52.669Z,17.30
2017-09-24T08:17:20.250Z,17.30
2017-09-24T08:19:47.817Z,17.50
2017-09-24T08:22:15.437Z,17.70
2017-09-24T08:24:43.743Z,17.90
2017-09-24T08:27:11.285Z,17.90
2017-09-24T08:29:38.864Z,18.20
2017-09-24T08:32:06.389Z,18.60
2017-09-24T08:34:34.817Z,18.60
2017-09-24T08:37:02.413Z,18.60
2017-09-24T08:39:30.032Z,18.70
2017-09-24T08:41:57.585Z,18.70
2017-09-24T08:44:25.116Z,18.70
2017-09-24T08:46:53.414Z,18.70
2017-09-24T08:49:20.961Z,18.60
2017-09-24T08:51:48.551Z,18.60
2017-09-24T08:54:16.186Z,18.90
2017-09-24T08:56:43.765Z,19.00
2017-09-24T08:59:11.325Z,19.30
2017-09-24T09:01:38.882Z,19.00
2017-09-24T09:04:06.440Z,19.60
2017-09-24T09:06:33.974Z,19.50
2017-09-24T09:09:02.268Z,19.80
2017-09-24T09:11:29.841Z,19.70
2017-09-24T09:13:57.369Z,20.10
2017-09-24T09:16:25.677Z,20.30
2017-09-24T09:18:53.226Z,20.30
2017-09-24T09:21:49.058Z,20.50
2017-09-24T09:24:16.669Z,20.50
2017-09-24T09:26:44.210Z,20.70
2017-09-24T09:29:12.601Z,21.10
2017-09-24T09:31:40.138Z,21.00
2017-09-24T09:34:19.374Z,21.20
2017-09-24T09:36:46.953Z,21.00
2017-09-24T09:39:14.585Z,21.00
2017-09-24T09:41:42.109Z,21.50
2017-09-24T09:44:21.535Z,21.50
2017-09-24T09:49:50.957Z,21.60
2017-09-24T09:52:19.278Z,22.20
2017-09-24T09:54:46.837Z,22.20
2017-09-24T09:57:14.392Z,22.10
2017-09-24T09:59:41.918Z,22.00
2017-09-24T10:02:10.211Z,21.50
2017-09-24T10:04:37.888Z,21.50
2017-09-24T10:10:10.285Z,21.10
2017-09-24T10:12:37.811Z,21.10
2017-09-24T10:15:06.088Z,21.20
2017-09-24T10:17:34.398Z,21.10
2017-09-24T10:20:01.930Z,21.00
2017-09-24T10:22:29.522Z,20.90
2017-09-24T10:24:57.082Z,20.70
2017-09-24T10:27:24.602Z,20.70
2017-09-24T10:32:52.813Z,22.80
2017-09-24T10:35:20.384Z,22.70
2017-09-24T10:37:47.895Z,23.20
2017-09-24T10:40:15.425Z,24.20
2017-09-24T10:42:42.971Z,25.10
2017-09-24T10:45:10.492Z,26.10
2017-09-24T10:47:38.808Z,27.90
2017-09-24T10:50:06.370Z,27.90
2017-09-24T10:52:33.930Z,28.60
2017-09-24T10:55:01.451Z,28.20
2017-09-24T10:57:29.860Z,29.30
2017-09-24T10:59:57.419Z,29.30
2017-09-24T11:02:26.318Z,29.50
2017-09-24T11:04:53.861Z,29.50
2017-09-24T11:07:21.390Z,29.20
2017-09-24T11:09:49.742Z,29.00
2017-09-24T11:12:17.314Z,29.00
2017-09-24T11:14:45.040Z,29.50
2017-09-24T11:17:12.570Z,29.70
2017-09-24T11:19:40.159Z,28.60
2017-09-24T11:22:07.719Z,28.20
2017-09-24T11:24:35.240Z,28.40
2017-09-24T11:27:03.557Z,30.40
2017-09-24T11:29:31.081Z,30.40
2017-09-24T11:31:59.361Z,30.30
2017-09-24T11:34:27.661Z,30.40
2017-09-24T11:36:55.183Z,30.40
2017-09-24T11:39:23.499Z,31.40
2017-09-24T11:41:51.056Z,31.30
2017-09-24T11:44:18.620Z,31.50
2017-09-24T11:46:46.153Z,31.60
2017-09-24T11:49:14.559Z,32.50
2017-09-24T11:51:42.122Z,32.40
2017-09-24T11:54:09.641Z,33.50
2017-09-24T11:56:37.947Z,35.80
2017-09-24T11:59:05.514Z,35.80
2017-09-24T12:01:33.072Z,36.70
2017-09-24T12:04:00.621Z,36.10
2017-09-24T12:06:28.154Z,34.70
2017-09-24T12:08:56.446Z,37.50
2017-09-24T12:11:23.985Z,37.40
2017-09-24T12:13:52.288Z,36.30
2017-09-24T12:16:19.974Z,36.30
2017-09-24T12:18:47.529Z,34.70
2017-09-24T12:21:15.940Z,37.40
2017-09-24T12:23:43.470Z,37.50
2017-09-24T12:26:11.032Z,40.30
2017-09-24T12:28:38.690Z,37.40
2017-09-24T12:31:06.228Z,36.20
2017-09-24T12:33:33.809Z,33.40
2017-09-24T12:36:01.370Z,32.40
2017-09-24T12:38:29.665Z,32.10
2017-09-24T12:40:57.205Z,33.00
2017-09-24T12:43:24.729Z,36.50
2017-09-24T12:45:53.041Z,34.20
2017-09-24T12:48:20.590Z,34.20
2017-09-24T12:50:48.113Z,36.70
2017-09-24T12:53:16.401Z,34.80
2017-09-24T12:55:44.703Z,35.60
2017-09-24T12:58:12.221Z,35.50
2017-09-24T13:00:39.841Z,38.10
2017-09-24T13:03:07.383Z,36.40
2017-09-24T13:05:34.901Z,36.40
2017-09-24T13:08:02.521Z,36.40
2017-09-24T13:10:31.013Z,35.30
2017-09-24T13:12:58.585Z,37.20
2017-09-24T13:15:26.112Z,38.20
2017-09-24T13:17:53.657Z,37.30
2017-09-24T13:20:21.950Z,36.00
2017-09-24T13:22:49.514Z,35.90
2017-09-24T13:25:17.078Z,37.30
2017-09-24T13:27:44.634Z,35.90
2017-09-24T13:30:12.190Z,37.30
2017-09-24T13:32:39.732Z,37.80
2017-09-24T13:35:07.309Z,36.30
2017-09-24T13:37:34.872Z,36.60
2017-09-24T13:40:02.425Z,35.10
2017-09-24T13:42:29.987Z,35.40
2017-09-24T13:44:57.517Z,36.80
2017-09-24T13:47:25.938Z,35.90
2017-09-24T13:49:53.457Z,35.80
2017-09-24T13:52:21.762Z,37.60
2017-09-24T13:54:49.309Z,37.60
2017-09-24T13:57:16.838Z,36.00
2017-09-24T13:59:44.362Z,34.10
2017-09-24T14:02:12.006Z,33.30
2017-09-24T14:04:39.534Z,32.90
2017-09-24T14:07:07.841Z,32.20
2017-09-24T14:09:35.418Z,32.20
2017-09-24T14:12:04.463Z,29.70
2017-09-24T14:14:33.665Z,28.20
2017-09-24T14:17:01.977Z,27.60
2017-09-24T14:19:29.506Z,27.50
2017-09-24T14:21:57.096Z,27.20
2017-09-24T14:24:24.654Z,27.40
2017-09-24T14:26:52.215Z,28.90
2017-09-24T14:29:19.742Z,29.80
2017-09-24T14:31:48.051Z,31.10
2017-09-24T14:34:15.609Z,31.00
2017-09-24T14:36:43.172Z,32.20
2017-09-24T14:39:10.730Z,32.60
2017-09-24T14:41:38.290Z,32.70
2017-09-24T14:44:05.818Z,34.10
2017-09-24T14:46:34.230Z,33.20
2017-09-24T14:49:01.761Z,33.20
2017-09-24T14:51:29.283Z,32.30
2017-09-24T14:53:56.836Z,30.60
2017-09-24T14:56:24.361Z,28.80
2017-09-24T14:58:52.055Z,28.20
2017-09-24T15:01:19.693Z,27.00
2017-09-24T15:03:47.250Z,26.20
2017-09-24T15:06:14.769Z,25.90
2017-09-24T15:08:43.202Z,24.40
2017-09-24T15:11:10.716Z,24.30
2017-09-24T15:13:39.008Z,23.50
2017-09-24T15:16:06.929Z,23.50
2017-09-24T15:18:34.557Z,22.60
2017-09-24T15:21:02.077Z,22.60
2017-09-24T15:23:30.377Z,21.70
2017-09-24T15:25:57.903Z,21.60
2017-09-24T15:28:26.188Z,21.20
2017-09-24T15:30:54.492Z,21.00
2017-09-24T15:33:22.063Z,21.00
2017-09-24T15:35:49.622Z,20.80
2017-09-24T15:38:17.162Z,20.60
2017-09-24T15:40:44.684Z,20.50
2017-09-24T15:43:12.314Z,20.30
2017-09-24T15:45:39.854Z,20.30
2017-09-24T15:48:08.343Z,20.20
2017-09-24T15:50:35.865Z,20.10
2017-09-24T15:53:04.178Z,20.10
2017-09-24T15:55:31.701Z,20.10
2017-09-24T15:57:59.995Z,19.90
2017-09-24T16:00:27.545Z,19.90
2017-09-24T16:02:55.825Z,19.60
2017-09-24T16:05:24.145Z,19.40
2017-09-24T16:07:51.693Z,19.40
2017-09-24T16:10:19.251Z,19.30
2017-09-24T16:12:46.773Z,19.10
2017-09-24T16:15:15.073Z,19.10
2017-09-24T16:17:42.599Z,19.10
2017-09-24T16:20:10.894Z,18.80
2017-09-24T16:22:40.220Z,18.60
2017-09-24T16:25:07.882Z,18.60
2017-09-24T16:27:35.410Z,18.40
2017-09-24T16:30:03.718Z,18.00
2017-09-24T16:32:31.283Z,18.00
2017-09-24T16:34:58.844Z,17.70
2017-09-24T16:37:26.390Z,17.60
2017-09-24T16:39:53.914Z,17.40
2017-09-24T16:42:22.218Z,17.10
2017-09-24T16:44:49.765Z,17.10
2017-09-24T16:47:18.083Z,16.80
2017-09-24T16:49:45.613Z,16.80
2017-09-24T16:52:13.246Z,16.60
2017-09-24T16:54:41.538Z,16.30
2017-09-24T16:57:09.825Z,16.10
2017-09-24T16:59:37.419Z,16.10
2017-09-24T17:02:04.986Z,16.00
2017-09-24T17:04:32.511Z,15.90
2017-09-24T17:07:00.053Z,15.70
2017-09-24T17:09:28.347Z,15.40
2017-09-24T17:11:55.872Z,15.40
2017-09-24T17:14:24.369Z,15.20
2017-09-24T17:16:52.661Z,15.10
2017-09-24T17:19:20.194Z,15.10
2017-09-24T17:21:48.505Z,14.90
2017-09-24T17:24:16.025Z,14.90
2017-09-24T17:26:44.046Z,14.80
2017-09-24T17:29:11.596Z,14.70
2017-09-24T17:31:39.125Z,14.60
2017-09-24T17:34:07.423Z,14.50
2017-09-24T17:36:34.966Z,14.50
2017-09-24T17:39:03.254Z,14.30
2017-09-24T17:41:30.788Z,14.30
2017-09-24T17:43:58.396Z,14.20
2017-09-24T17:46:26.063Z,14.20
2017-09-24T17:48:53.601Z,14.20
2017-09-24T17:51:21.145Z,14.10
2017-09-24T17:53:49.433Z,14.00
2017-09-24T17:56:16.949Z,14.00
2017-09-24T17:58:44.870Z,14.00
2017-09-24T18:01:12.486Z,14.00
2017-09-24T18:03:40.010Z,13.90
2017-09-24T18:06:07.553Z,13.80
2017-09-24T18:08:35.121Z,13.80
2017-09-24T18:11:02.650Z,13.70
2017-09-24T18:13:31.054Z,13.60
2017-09-24T18:15:58.621Z,13.60
2017-09-24T18:18:26.205Z,13.50
2017-09-24T18:20:53.749Z,13.50
2017-09-24T18:23:21.264Z,13.50
2017-09-24T18:25:49.553Z,13.30
2017-09-24T18:28:17.113Z,13.30
2017-09-24T18:30:44.637Z,13.20
2017-09-24T18:33:12.164Z,13.10
2017-09-24T18:35:39.711Z,13.00
2017-09-24T18:38:07.275Z,12.90
2017-09-24T18:40:34.802Z,12.80
2017-09-24T18:43:03.116Z,12.60
2017-09-24T18:45:30.651Z,12.60
2017-09-24T18:47:58.178Z,12.50
2017-09-24T18:50:25.970Z,12.40
2017-09-24T18:52:53.496Z,12.40
2017-09-24T18:55:21.031Z,12.30
2017-09-24T18:57:48.702Z,12.30
2017-09-24T19:00:17.758Z,12.30
2017-09-24T19:02:45.286Z,12.30
2017-09-24T19:05:13.613Z,12.20
2017-09-24T19:07:41.171Z,12.20
2017-09-24T19:10:08.745Z,12.20
2017-09-24T19:12:36.288Z,12.10
2017-09-24T19:15:04.257Z,12.00
2017-09-24T19:17:31.813Z,11.90
2017-09-24T19:19:59.389Z,11.80
2017-09-24T19:22:26.911Z,11.70
2017-09-24T19:24:54.899Z,11.70
2017-09-24T19:27:23.217Z,11.60
2017-09-24T19:29:50.754Z,11.50
2017-09-24T19:32:18.298Z,11.50
2017-09-24T19:34:45.845Z,11.40
2017-09-24T19:37:13.385Z,11.30
2017-09-24T19:39:41.682Z,11.20
2017-09-24T19:42:09.232Z,11.20
2017-09-24T19:44:36.759Z,11.20
2017-09-24T19:47:04.320Z,11.10
2017-09-24T19:49:32.643Z,11.10
2017-09-24T19:52:00.170Z,11.10
2017-09-24T19:54:28.494Z,11.00
2017-09-24T19:56:56.053Z,11.00
2017-09-24T19:59:23.582Z,10.90
2017-09-24T20:01:51.114Z,10.80
2017-09-24T20:04:19.637Z,10.80
2017-09-24T20:06:47.765Z,10.80
2017-09-24T20:09:15.289Z,10.70
2017-09-24T20:11:42.833Z,10.60
2017-09-24T20:14:10.354Z,10.50
2017-09-24T20:16:38.643Z,10.40
2017-09-24T20:19:06.991Z,10.30
2017-09-24T20:21:34.513Z,10.30
2017-09-24T20:24:02.038Z,10.30
2017-09-24T20:26:30.349Z,10.10
2017-09-24T20:28:57.873Z,10.10
2017-09-24T20:31:26.163Z,10.00
2017-09-24T20:33:54.466Z,9.90
2017-09-24T20:36:22.018Z,9.90
2017-09-24T20:38:49.897Z,9.90
2017-09-24T20:41:17.458Z,9.80
2017-09-24T20:43:45.003Z,9.80
2017-09-24T20:46:12.566Z,9.70
2017-09-24T20:48:40.122Z,9.70
2017-09-24T20:51:07.646Z,9.70
2017-09-24T20:53:35.938Z,9.60
2017-09-24T20:56:03.494Z,9.60
2017-09-24T20:58:31.078Z,9.60
2017-09-24T21:00:59.410Z,9.60
2017-09-24T21:03:28.041Z,9.50
2017-09-24T21:05:55.582Z,9.50
2017-09-24T21:08:23.162Z,9.50
2017-09-24T21:10:50.957Z,9.40
2017-09-24T21:13:18.791Z,9.40
2017-09-24T21:15:46.555Z,9.40
2017-09-24T21:18:14.294Z,9.40
2017-09-24T21:20:41.875Z,9.30
2017-09-24T21:23:09.397Z,9.30
2017-09-24T21:25:37.726Z,9.20
2017-09-24T21:28:05.245Z,9.20
2017-09-24T21:30:33.525Z,9.10
2017-09-24T21:33:01.848Z,9.10
2017-09-24T21:35:29.381Z,9.10
2017-09-24T21:37:56.909Z,9.00
2017-09-24T21:40:25.224Z,9.00
2017-09-24T21:42:52.744Z,9.00
2017-09-24T21:45:21.951Z,9.00
2017-09-24T21:47:50.378Z,8.90
2017-09-24T21:50:17.937Z,8.80
2017-09-24T21:52:45.481Z,8.80
2017-09-24T21:55:13.019Z,8.70
2017-09-24T21:57:40.561Z,8.70
2017-09-24T22:00:08.851Z,8.60
2017-09-24T22:02:36.414Z,8.60
2017-09-24T22:05:04.681Z,8.60
2017-09-24T22:07:32.961Z,8.50
2017-09-24T22:10:01.269Z,8.50
2017-09-24T22:12:28.854Z,8.50
2017-09-24T22:14:56.428Z,8.50
2017-09-24T22:17:23.961Z,8.40
2017-09-24T22:19:51.483Z,8.40
2017-09-24T22:22:18.993Z,8.30
2017-09-24T22:24:46.525Z,8.30
2017-09-24T22:27:14.082Z,8.20
2017-09-24T22:29:41.598Z,8.20
2017-09-24T22:32:10.024Z,8.10
2017-09-24T22:34:37.684Z,8.10
2017-09-24T22:37:05.248Z,8.10
2017-09-24T22:39:32.806Z,8.10
2017-09-24T22:42:00.321Z,8.00
2017-09-24T22:44:28.611Z,7.90
2017-09-24T22:46:56.154Z,7.90
2017-09-24T22:49:24.852Z,7.90
2017-09-24T22:51:54.062Z,7.90
2017-09-24T22:54:21.602Z,7.90
2017-09-24T22:56:49.922Z,7.90
2017-09-24T22:59:17.481Z,7.80
2017-09-24T23:01:45.045Z,7.90
2017-09-24T23:04:12.566Z,7.80
2017-09-24T23:06:40.855Z,7.80
2017-09-24T23:09:08.385Z,7.80
2017-09-24T23:11:36.717Z,7.70
2017-09-24T23:14:04.241Z,7.70
2017-09-24T23:16:32.649Z,7.70
2017-09-24T23:19:00.214Z,7.70
2017-09-24T23:21:27.766Z,7.70
2017-09-24T23:23:55.309Z,7.70
2017-09-24T23:26:22.828Z,7.70
2017-09-24T23:28:50.343Z,7.60
2017-09-24T23:31:17.883Z,7.60
2017-09-24T23:33:46.157Z,7.50
2017-09-24T23:36:14.436Z,7.50
2017-09-24T23:38:42.838Z,7.50
2017-09-24T23:41:10.357Z,7.50
2017-09-24T23:43:38.649Z,7.50
2017-09-24T23:46:07.006Z,7.40
2017-09-24T23:48:34.626Z,7.40
2017-09-24T23:51:02.149Z,7.50
2017-09-24T23:53:30.450Z,7.40
2017-09-24T23:55:57.970Z,7.40
2017-09-24T23:58:27.170Z,7.40
